sensor_id;sensor_type;location;lat;lon;timestamp;P1;durP1;ratioP1;P2;durP2;ratioP2
14272;SDS011;7220;49.450;11.052;2022-08-25T00:00:20;9.88;;;8.75;;
14272;SDS011;7220;49.450;11.052;2022-08-25T00:04:21;10.57;;;8.93;;
14272;SDS011;7220;49.450;11.052;2022-08-25T00:08:22;11.50;;;8.98;;
14272;SDS011;7220;49.450;11.052;2022-08-25T00:12:22;10.20;;;9.20;;
14272;SDS011;7220;49.450;11.052;2022-08-25T00:16:23;10.00;;;9.00;;
14272;SDS011;7220;49.450;11.052;2022-08-25T00:20:25;11.23;;;9.32;;
14272;SDS011;7220;49.450;11.052;2022-08-25T00:24:28;13.45;;;9.88;;
14272;SDS011;7220;49.450;11.052;2022-08-25T00:28:28;11.88;;;9.77;;
14272;SDS011;7220;49.450;11.052;2022-08-25T00:32:30;11.18;;;8.85;;
14272;SDS011;7220;49.450;11.052;2022-08-25T00:36:30;9.88;;;8.88;;
14272;SDS011;7220;49.450;11.052;2022-08-25T00:40:30;10.87;;;9.37;;
14272;SDS011;7220;49.450;11.052;2022-08-25T00:44:31;11.95;;;9.23;;
14272;SDS011;7220;49.450;11.052;2022-08-25T00:48:33;9.93;;;8.93;;
14272;SDS011;7220;49.450;11.052;2022-08-25T00:52:35;10.20;;;9.13;;
14272;SDS011;7220;49.450;11.052;2022-08-25T00:56:40;10.07;;;9.05;;
14272;SDS011;7220;49.450;11.052;2022-08-25T01:00:43;11.60;;;9.70;;
14272;SDS011;7220;49.450;11.052;2022-08-25T01:04:46;10.25;;;9.25;;
14272;SDS011;7220;49.450;11.052;2022-08-25T01:08:46;12.48;;;10.40;;
14272;SDS011;7220;49.450;11.052;2022-08-25T01:12:47;10.95;;;9.82;;
14272;SDS011;7220;49.450;11.052;2022-08-25T01:16:49;10.85;;;9.82;;
14272;SDS011;7220;49.450;11.052;2022-08-25T01:20:51;11.65;;;9.15;;
14272;SDS011;7220;49.450;11.052;2022-08-25T01:24:58;11.15;;;10.07;;
14272;SDS011;7220;49.450;11.052;2022-08-25T01:29:04;10.75;;;9.65;;
14272;SDS011;7220;49.450;11.052;2022-08-25T01:33:24;12.15;;;9.45;;
14272;SDS011;7220;49.450;11.052;2022-08-25T01:37:24;10.40;;;9.40;;
14272;SDS011;7220;49.450;11.052;2022-08-25T01:45:28;10.63;;;9.57;;
14272;SDS011;7220;49.450;11.052;2022-08-25T01:49:28;13.25;;;10.68;;
14272;SDS011;7220;49.450;11.052;2022-08-25T01:53:29;11.27;;;10.27;;
14272;SDS011;7220;49.450;11.052;2022-08-25T01:57:30;11.25;;;9.80;;
14272;SDS011;7220;49.450;11.052;2022-08-25T02:01:30;10.65;;;9.65;;
14272;SDS011;7220;49.450;11.052;2022-08-25T02:05:31;11.65;;;10.48;;
14272;SDS011;7220;49.450;11.052;2022-08-25T02:09:31;11.18;;;10.07;;
14272;SDS011;7220;49.450;11.052;2022-08-25T02:13:32;12.60;;;11.40;;
14272;SDS011;7220;49.450;11.052;2022-08-25T02:17:33;12.07;;;10.77;;
14272;SDS011;7220;49.450;11.052;2022-08-25T02:21:35;11.65;;;10.45;;
14272;SDS011;7220;49.450;11.052;2022-08-25T02:25:37;11.73;;;10.63;;
14272;SDS011;7220;49.450;11.052;2022-08-25T02:29:39;12.88;;;11.15;;
14272;SDS011;7220;49.450;11.052;2022-08-25T02:33:39;13.32;;;10.57;;
14272;SDS011;7220;49.450;11.052;2022-08-25T02:37:40;12.25;;;10.65;;
14272;SDS011;7220;49.450;11.052;2022-08-25T02:41:40;12.48;;;11.27;;
14272;SDS011;7220;49.450;11.052;2022-08-25T02:45:41;11.00;;;9.90;;
14272;SDS011;7220;49.450;11.052;2022-08-25T02:49:41;11.57;;;10.35;;
14272;SDS011;7220;49.450;11.052;2022-08-25T02:53:41;14.30;;;12.03;;
14272;SDS011;7220;49.450;11.052;2022-08-25T02:57:44;11.98;;;10.77;;
14272;SDS011;7220;49.450;11.052;2022-08-25T03:01:45;13.68;;;12.35;;
14272;SDS011;7220;49.450;11.052;2022-08-25T03:05:45;12.50;;;11.20;;
14272;SDS011;7220;49.450;11.052;2022-08-25T03:09:46;14.45;;;12.13;;
14272;SDS011;7220;49.450;11.052;2022-08-25T03:13:47;12.70;;;11.30;;
14272;SDS011;7220;49.450;11.052;2022-08-25T03:17:50;13.38;;;11.82;;
14272;SDS011;7220;49.450;11.052;2022-08-25T03:21:50;15.63;;;12.05;;
14272;SDS011;7220;49.450;11.052;2022-08-25T03:25:55;13.52;;;12.13;;
14272;SDS011;7220;49.450;11.052;2022-08-25T03:30:14;12.10;;;10.80;;
14272;SDS011;7220;49.450;11.052;2022-08-25T03:34:15;13.55;;;12.25;;
14272;SDS011;7220;49.450;11.052;2022-08-25T03:38:16;13.43;;;11.95;;
14272;SDS011;7220;49.450;11.052;2022-08-25T03:42:17;14.37;;;11.87;;
14272;SDS011;7220;49.450;11.052;2022-08-25T03:46:28;15.65;;;12.07;;
14272;SDS011;7220;49.450;11.052;2022-08-25T03:50:30;14.57;;;11.70;;
14272;SDS011;7220;49.450;11.052;2022-08-25T03:54:31;13.88;;;12.07;;
14272;SDS011;7220;49.450;11.052;2022-08-25T03:58:31;13.05;;;11.63;;
14272;SDS011;7220;49.450;11.052;2022-08-25T04:02:31;14.57;;;12.40;;
14272;SDS011;7220;49.450;11.052;2022-08-25T04:06:32;14.23;;;12.50;;
14272;SDS011;7220;49.450;11.052;2022-08-25T04:10:33;13.73;;;11.93;;
14272;SDS011;7220;49.450;11.052;2022-08-25T04:14:36;13.88;;;12.32;;
14272;SDS011;7220;49.450;11.052;2022-08-25T04:18:36;14.73;;;12.23;;
14272;SDS011;7220;49.450;11.052;2022-08-25T04:22:37;13.90;;;12.27;;
14272;SDS011;7220;49.450;11.052;2022-08-25T04:26:39;14.75;;;13.15;;
14272;SDS011;7220;49.450;11.052;2022-08-25T04:30:41;16.05;;;13.52;;
14272;SDS011;7220;49.450;11.052;2022-08-25T04:34:43;13.75;;;12.23;;
14272;SDS011;7220;49.450;11.052;2022-08-25T04:38:44;14.93;;;13.38;;
14272;SDS011;7220;49.450;11.052;2022-08-25T04:42:46;15.15;;;13.55;;
14272;SDS011;7220;49.450;11.052;2022-08-25T04:46:46;15.85;;;12.52;;
14272;SDS011;7220;49.450;11.052;2022-08-25T04:50:46;14.85;;;12.93;;
14272;SDS011;7220;49.450;11.052;2022-08-25T04:54:47;15.38;;;13.65;;
14272;SDS011;7220;49.450;11.052;2022-08-25T04:58:47;15.57;;;13.98;;
14272;SDS011;7220;49.450;11.052;2022-08-25T05:02:48;17.70;;;15.23;;
14272;SDS011;7220;49.450;11.052;2022-08-25T05:06:48;15.53;;;13.10;;
14272;SDS011;7220;49.450;11.052;2022-08-25T05:10:49;15.73;;;13.52;;
14272;SDS011;7220;49.450;11.052;2022-08-25T05:14:52;16.90;;;14.07;;
14272;SDS011;7220;49.450;11.052;2022-08-25T05:18:53;23.80;;;15.93;;
14272;SDS011;7220;49.450;11.052;2022-08-25T05:22:54;17.65;;;14.43;;
14272;SDS011;7220;49.450;11.052;2022-08-25T05:26:54;16.33;;;14.10;;
14272;SDS011;7220;49.450;11.052;2022-08-25T05:30:59;16.98;;;13.95;;
14272;SDS011;7220;49.450;11.052;2022-08-25T05:35:00;17.83;;;14.90;;
14272;SDS011;7220;49.450;11.052;2022-08-25T05:39:01;17.08;;;14.15;;
14272;SDS011;7220;49.450;11.052;2022-08-25T05:43:03;17.42;;;14.27;;
14272;SDS011;7220;49.450;11.052;2022-08-25T05:47:03;15.47;;;13.87;;
14272;SDS011;7220;49.450;11.052;2022-08-25T05:51:05;16.48;;;14.70;;
14272;SDS011;7220;49.450;11.052;2022-08-25T05:55:06;15.35;;;13.68;;
14272;SDS011;7220;49.450;11.052;2022-08-25T05:59:07;16.50;;;14.73;;
14272;SDS011;7220;49.450;11.052;2022-08-25T06:03:08;15.93;;;14.23;;
14272;SDS011;7220;49.450;11.052;2022-08-25T06:07:09;16.65;;;14.20;;
14272;SDS011;7220;49.450;11.052;2022-08-25T06:11:10;15.40;;;13.77;;
14272;SDS011;7220;49.450;11.052;2022-08-25T06:15:12;15.60;;;14.00;;
14272;SDS011;7220;49.450;11.052;2022-08-25T06:19:15;16.38;;;14.65;;
14272;SDS011;7220;49.450;11.052;2022-08-25T06:23:15;15.48;;;13.88;;
14272;SDS011;7220;49.450;11.052;2022-08-25T06:27:18;15.85;;;14.18;;
14272;SDS011;7220;49.450;11.052;2022-08-25T06:31:18;15.73;;;14.13;;
14272;SDS011;7220;49.450;11.052;2022-08-25T06:35:21;15.48;;;13.48;;
14272;SDS011;7220;49.450;11.052;2022-08-25T06:39:22;15.98;;;14.30;;
14272;SDS011;7220;49.450;11.052;2022-08-25T06:43:23;16.73;;;14.25;;
14272;SDS011;7220;49.450;11.052;2022-08-25T06:47:23;20.55;;;13.77;;
14272;SDS011;7220;49.450;11.052;2022-08-25T06:51:24;23.40;;;14.32;;
14272;SDS011;7220;49.450;11.052;2022-08-25T06:55:25;18.63;;;14.40;;
14272;SDS011;7220;49.450;11.052;2022-08-25T06:59:25;15.05;;;13.48;;
14272;SDS011;7220;49.450;11.052;2022-08-25T07:03:26;15.52;;;13.40;;
14272;SDS011;7220;49.450;11.052;2022-08-25T07:07:27;13.88;;;12.48;;
14272;SDS011;7220;49.450;11.052;2022-08-25T07:11:27;14.38;;;12.50;;
14272;SDS011;7220;49.450;11.052;2022-08-25T07:15:28;15.57;;;12.73;;
14272;SDS011;7220;49.450;11.052;2022-08-25T07:19:28;14.23;;;12.80;;
14272;SDS011;7220;49.450;11.052;2022-08-25T07:23:29;15.52;;;12.82;;
14272;SDS011;7220;49.450;11.052;2022-08-25T07:27:29;14.10;;;12.43;;
14272;SDS011;7220;49.450;11.052;2022-08-25T07:31:29;13.65;;;12.20;;
14272;SDS011;7220;49.450;11.052;2022-08-25T07:35:30;13.98;;;11.90;;
14272;SDS011;7220;49.450;11.052;2022-08-25T07:39:31;13.10;;;11.85;;
14272;SDS011;7220;49.450;11.052;2022-08-25T07:43:32;14.43;;;11.20;;
14272;SDS011;7220;49.450;11.052;2022-08-25T07:47:33;14.43;;;12.07;;
14272;SDS011;7220;49.450;11.052;2022-08-25T07:51:33;14.27;;;12.38;;
14272;SDS011;7220;49.450;11.052;2022-08-25T07:55:34;14.73;;;12.40;;
14272;SDS011;7220;49.450;11.052;2022-08-25T07:59:38;12.65;;;11.15;;
14272;SDS011;7220;49.450;11.052;2022-08-25T08:03:42;12.18;;;10.95;;
14272;SDS011;7220;49.450;11.052;2022-08-25T08:07:43;13.05;;;11.30;;
14272;SDS011;7220;49.450;11.052;2022-08-25T08:11:43;12.67;;;11.13;;
14272;SDS011;7220;49.450;11.052;2022-08-25T08:15:44;12.48;;;11.32;;
14272;SDS011;7220;49.450;11.052;2022-08-25T08:19:45;13.27;;;11.88;;
14272;SDS011;7220;49.450;11.052;2022-08-25T08:23:46;12.48;;;11.27;;
14272;SDS011;7220;49.450;11.052;2022-08-25T08:27:47;13.57;;;11.07;;
14272;SDS011;7220;49.450;11.052;2022-08-25T08:31:47;11.80;;;10.65;;
14272;SDS011;7220;49.450;11.052;2022-08-25T08:35:54;13.40;;;11.40;;
14272;SDS011;7220;49.450;11.052;2022-08-25T08:39:56;11.82;;;10.63;;
14272;SDS011;7220;49.450;11.052;2022-08-25T08:44:24;12.02;;;10.85;;
14272;SDS011;7220;49.450;11.052;2022-08-25T08:48:24;12.05;;;10.43;;
14272;SDS011;7220;49.450;11.052;2022-08-25T08:52:32;10.45;;;9.45;;
14272;SDS011;7220;49.450;11.052;2022-08-25T08:56:39;13.98;;;9.57;;
14272;SDS011;7220;49.450;11.052;2022-08-25T09:00:51;10.95;;;9.93;;
14272;SDS011;7220;49.450;11.052;2022-08-25T09:04:56;10.52;;;9.48;;
14272;SDS011;7220;49.450;11.052;2022-08-25T09:09:01;11.10;;;10.07;;
14272;SDS011;7220;49.450;11.052;2022-08-25T09:14:06;9.02;;;8.10;;
14272;SDS011;7220;49.450;11.052;2022-08-25T09:17:46;9.40;;;8.52;;
14272;SDS011;7220;49.450;11.052;2022-08-25T09:21:56;10.10;;;8.88;;
14272;SDS011;7220;49.450;11.052;2022-08-25T09:30:20;9.07;;;8.18;;
14272;SDS011;7220;49.450;11.052;2022-08-25T09:34:22;9.00;;;8.20;;
14272;SDS011;7220;49.450;11.052;2022-08-25T09:38:27;9.02;;;8.23;;
14272;SDS011;7220;49.450;11.052;2022-08-25T09:42:46;9.45;;;8.60;;
14272;SDS011;7220;49.450;11.052;2022-08-25T09:55:24;8.98;;;7.97;;
14272;SDS011;7220;49.450;11.052;2022-08-25T09:59:32;9.68;;;8.40;;
14272;SDS011;7220;49.450;11.052;2022-08-25T10:03:35;9.52;;;8.73;;
14272;SDS011;7220;49.450;11.052;2022-08-25T10:07:36;9.65;;;8.75;;
14272;SDS011;7220;49.450;11.052;2022-08-25T10:11:47;11.85;;;8.32;;
14272;SDS011;7220;49.450;11.052;2022-08-25T10:15:47;11.38;;;8.35;;
14272;SDS011;7220;49.450;11.052;2022-08-25T10:24:10;9.48;;;8.45;;
14272;SDS011;7220;49.450;11.052;2022-08-25T10:28:26;10.07;;;9.13;;
14272;SDS011;7220;49.450;11.052;2022-08-25T10:32:44;10.35;;;9.32;;
14272;SDS011;7220;49.450;11.052;2022-08-25T10:41:36;10.02;;;9.05;;
14272;SDS011;7220;49.450;11.052;2022-08-25T10:45:42;9.80;;;8.90;;
14272;SDS011;7220;49.450;11.052;2022-08-25T10:49:49;9.82;;;8.82;;
14272;SDS011;7220;49.450;11.052;2022-08-25T10:54:13;10.00;;;8.93;;
14272;SDS011;7220;49.450;11.052;2022-08-25T11:06:43;10.00;;;9.00;;
14272;SDS011;7220;49.450;11.052;2022-08-25T11:15:57;9.20;;;8.40;;
14272;SDS011;7220;49.450;11.052;2022-08-25T11:20:03;10.63;;;9.60;;
14272;SDS011;7220;49.450;11.052;2022-08-25T11:28:20;9.73;;;8.82;;
14272;SDS011;7220;49.450;11.052;2022-08-25T11:32:29;8.90;;;8.20;;
14272;SDS011;7220;49.450;11.052;2022-08-25T11:36:36;8.50;;;7.80;;
14272;SDS011;7220;49.450;11.052;2022-08-25T11:53:45;8.73;;;7.88;;
14272;SDS011;7220;49.450;11.052;2022-08-25T11:57:47;9.18;;;8.32;;
14272;SDS011;7220;49.450;11.052;2022-08-25T12:06:12;10.13;;;9.13;;
14272;SDS011;7220;49.450;11.052;2022-08-25T12:10:25;8.75;;;7.65;;
14272;SDS011;7220;49.450;11.052;2022-08-25T12:14:51;8.75;;;7.95;;
14272;SDS011;7220;49.450;11.052;2022-08-25T12:18:51;9.03;;;8.17;;
14272;SDS011;7220;49.450;11.052;2022-08-25T12:22:53;8.68;;;7.80;;
14272;SDS011;7220;49.450;11.052;2022-08-25T12:26:56;8.25;;;7.55;;
14272;SDS011;7220;49.450;11.052;2022-08-25T12:31:00;8.68;;;7.65;;
14272;SDS011;7220;49.450;11.052;2022-08-25T12:35:14;8.20;;;7.40;;
14272;SDS011;7220;49.450;11.052;2022-08-25T12:43:51;8.25;;;7.25;;
14272;SDS011;7220;49.450;11.052;2022-08-25T12:47:53;8.23;;;7.43;;
14272;SDS011;7220;49.450;11.052;2022-08-25T12:52:00;7.32;;;6.63;;
14272;SDS011;7220;49.450;11.052;2022-08-25T12:56:06;7.53;;;6.72;;
14272;SDS011;7220;49.450;11.052;2022-08-25T13:00:24;8.23;;;6.45;;
14272;SDS011;7220;49.450;11.052;2022-08-25T13:04:34;7.93;;;6.90;;
14272;SDS011;7220;49.450;11.052;2022-08-25T13:17:31;8.00;;;7.30;;
14272;SDS011;7220;49.450;11.052;2022-08-25T13:21:40;7.85;;;7.15;;
14272;SDS011;7220;49.450;11.052;2022-08-25T13:25:47;8.52;;;7.03;;
14272;SDS011;7220;49.450;11.052;2022-08-25T13:29:57;7.53;;;6.70;;
14272;SDS011;7220;49.450;11.052;2022-08-25T13:34:00;8.50;;;7.72;;
14272;SDS011;7220;49.450;11.052;2022-08-25T13:38:12;10.30;;;7.63;;
14272;SDS011;7220;49.450;11.052;2022-08-25T13:42:14;7.75;;;7.05;;
14272;SDS011;7220;49.450;11.052;2022-08-25T13:46:22;15.33;;;6.93;;
14272;SDS011;7220;49.450;11.052;2022-08-25T13:54:28;7.65;;;6.97;;
14272;SDS011;7220;49.450;11.052;2022-08-25T13:58:32;10.40;;;9.27;;
14272;SDS011;7220;49.450;11.052;2022-08-25T14:02:39;10.00;;;8.70;;
14272;SDS011;7220;49.450;11.052;2022-08-25T14:06:40;10.02;;;8.88;;
14272;SDS011;7220;49.450;11.052;2022-08-25T14:10:42;7.72;;;6.80;;
14272;SDS011;7220;49.450;11.052;2022-08-25T14:14:43;6.95;;;6.35;;
14272;SDS011;7220;49.450;11.052;2022-08-25T14:18:57;7.75;;;6.07;;
14272;SDS011;7220;49.450;11.052;2022-08-25T14:23:05;7.88;;;6.57;;
14272;SDS011;7220;49.450;11.052;2022-08-25T14:27:07;8.10;;;6.85;;
14272;SDS011;7220;49.450;11.052;2022-08-25T14:31:08;10.30;;;6.63;;
14272;SDS011;7220;49.450;11.052;2022-08-25T14:35:12;9.30;;;6.55;;
14272;SDS011;7220;49.450;11.052;2022-08-25T14:39:13;8.27;;;6.88;;
14272;SDS011;7220;49.450;11.052;2022-08-25T14:43:13;7.85;;;6.45;;
14272;SDS011;7220;49.450;11.052;2022-08-25T14:47:14;8.73;;;6.57;;
14272;SDS011;7220;49.450;11.052;2022-08-25T14:51:16;7.25;;;5.80;;
14272;SDS011;7220;49.450;11.052;2022-08-25T14:55:18;6.80;;;5.68;;
14272;SDS011;7220;49.450;11.052;2022-08-25T14:59:18;8.48;;;6.28;;
14272;SDS011;7220;49.450;11.052;2022-08-25T15:03:40;9.10;;;5.90;;
14272;SDS011;7220;49.450;11.052;2022-08-25T15:07:41;6.88;;;5.30;;
14272;SDS011;7220;49.450;11.052;2022-08-25T15:12:00;8.75;;;6.20;;
14272;SDS011;7220;49.450;11.052;2022-08-25T15:16:01;7.65;;;5.93;;
14272;SDS011;7220;49.450;11.052;2022-08-25T15:20:02;8.35;;;5.80;;
14272;SDS011;7220;49.450;11.052;2022-08-25T15:24:04;6.95;;;5.97;;
14272;SDS011;7220;49.450;11.052;2022-08-25T15:28:05;8.00;;;5.97;;
14272;SDS011;7220;49.450;11.052;2022-08-25T15:32:07;8.90;;;5.72;;
14272;SDS011;7220;49.450;11.052;2022-08-25T15:36:08;9.38;;;5.90;;
14272;SDS011;7220;49.450;11.052;2022-08-25T15:40:11;9.00;;;6.93;;
14272;SDS011;7220;49.450;11.052;2022-08-25T15:44:11;6.53;;;5.80;;
14272;SDS011;7220;49.450;11.052;2022-08-25T15:48:12;9.87;;;6.93;;
14272;SDS011;7220;49.450;11.052;2022-08-25T15:52:12;8.53;;;7.73;;
14272;SDS011;7220;49.450;11.052;2022-08-25T15:56:12;7.63;;;6.40;;
14272;SDS011;7220;49.450;11.052;2022-08-25T16:00:17;7.05;;;6.35;;
14272;SDS011;7220;49.450;11.052;2022-08-25T16:04:18;7.78;;;6.93;;
14272;SDS011;7220;49.450;11.052;2022-08-25T16:08:19;7.97;;;7.20;;
14272;SDS011;7220;49.450;11.052;2022-08-25T16:12:20;7.43;;;6.60;;
14272;SDS011;7220;49.450;11.052;2022-08-25T16:16:21;8.50;;;6.47;;
14272;SDS011;7220;49.450;11.052;2022-08-25T16:20:22;11.75;;;7.00;;
14272;SDS011;7220;49.450;11.052;2022-08-25T16:24:23;7.32;;;6.55;;
14272;SDS011;7220;49.450;11.052;2022-08-25T16:28:24;7.35;;;6.28;;
14272;SDS011;7220;49.450;11.052;2022-08-25T16:32:27;7.22;;;6.50;;
14272;SDS011;7220;49.450;11.052;2022-08-25T16:36:28;7.57;;;6.00;;
14272;SDS011;7220;49.450;11.052;2022-08-25T16:40:28;7.68;;;6.63;;
14272;SDS011;7220;49.450;11.052;2022-08-25T16:44:30;10.63;;;6.32;;
14272;SDS011;7220;49.450;11.052;2022-08-25T16:48:30;9.27;;;6.57;;
14272;SDS011;7220;49.450;11.052;2022-08-25T16:52:38;9.82;;;7.10;;
14272;SDS011;7220;49.450;11.052;2022-08-25T16:56:57;7.85;;;6.65;;
14272;SDS011;7220;49.450;11.052;2022-08-25T17:01:10;7.97;;;6.22;;
14272;SDS011;7220;49.450;11.052;2022-08-25T17:05:11;7.72;;;6.90;;
14272;SDS011;7220;49.450;11.052;2022-08-25T17:09:12;8.13;;;6.33;;
14272;SDS011;7220;49.450;11.052;2022-08-25T17:13:13;11.95;;;7.13;;
14272;SDS011;7220;49.450;11.052;2022-08-25T17:17:14;10.40;;;7.55;;
14272;SDS011;7220;49.450;11.052;2022-08-25T17:21:15;10.40;;;7.23;;
14272;SDS011;7220;49.450;11.052;2022-08-25T17:25:17;7.53;;;6.93;;
14272;SDS011;7220;49.450;11.052;2022-08-25T17:29:18;8.02;;;7.22;;
14272;SDS011;7220;49.450;11.052;2022-08-25T17:33:18;10.35;;;6.80;;
14272;SDS011;7220;49.450;11.052;2022-08-25T17:37:19;7.78;;;6.82;;
14272;SDS011;7220;49.450;11.052;2022-08-25T17:41:19;7.93;;;6.70;;
14272;SDS011;7220;49.450;11.052;2022-08-25T17:45:20;7.80;;;6.70;;
14272;SDS011;7220;49.450;11.052;2022-08-25T17:49:20;9.17;;;6.70;;
14272;SDS011;7220;49.450;11.052;2022-08-25T17:53:21;8.13;;;7.32;;
14272;SDS011;7220;49.450;11.052;2022-08-25T17:57:21;8.03;;;7.23;;
14272;SDS011;7220;49.450;11.052;2022-08-25T18:01:26;9.63;;;7.17;;
14272;SDS011;7220;49.450;11.052;2022-08-25T18:05:31;8.18;;;6.80;;
14272;SDS011;7220;49.450;11.052;2022-08-25T18:09:33;7.38;;;6.65;;
14272;SDS011;7220;49.450;11.052;2022-08-25T18:13:33;13.03;;;7.20;;
14272;SDS011;7220;49.450;11.052;2022-08-25T18:17:35;7.95;;;6.60;;
14272;SDS011;7220;49.450;11.052;2022-08-25T18:21:37;9.18;;;7.15;;
14272;SDS011;7220;49.450;11.052;2022-08-25T18:25:38;9.40;;;7.68;;
14272;SDS011;7220;49.450;11.052;2022-08-25T18:29:38;8.70;;;7.10;;
14272;SDS011;7220;49.450;11.052;2022-08-25T18:33:42;8.18;;;6.75;;
14272;SDS011;7220;49.450;11.052;2022-08-25T18:37:43;8.25;;;7.22;;
14272;SDS011;7220;49.450;11.052;2022-08-25T18:42:03;8.57;;;6.68;;
14272;SDS011;7220;49.450;11.052;2022-08-25T18:46:04;8.32;;;6.88;;
14272;SDS011;7220;49.450;11.052;2022-08-25T18:50:05;7.90;;;7.20;;
14272;SDS011;7220;49.450;11.052;2022-08-25T18:54:05;8.48;;;7.00;;
14272;SDS011;7220;49.450;11.052;2022-08-25T18:58:06;9.20;;;7.57;;
14272;SDS011;7220;49.450;11.052;2022-08-25T19:02:07;8.55;;;7.22;;
14272;SDS011;7220;49.450;11.052;2022-08-25T19:06:09;8.75;;;7.90;;
14272;SDS011;7220;49.450;11.052;2022-08-25T19:10:10;9.77;;;7.82;;
14272;SDS011;7220;49.450;11.052;2022-08-25T19:14:10;9.20;;;6.95;;
14272;SDS011;7220;49.450;11.052;2022-08-25T19:18:13;11.30;;;8.43;;
14272;SDS011;7220;49.450;11.052;2022-08-25T19:22:13;11.45;;;7.57;;
14272;SDS011;7220;49.450;11.052;2022-08-25T19:26:14;10.88;;;7.88;;
14272;SDS011;7220;49.450;11.052;2022-08-25T19:30:16;10.88;;;7.95;;
14272;SDS011;7220;49.450;11.052;2022-08-25T19:34:23;10.93;;;8.40;;
14272;SDS011;7220;49.450;11.052;2022-08-25T19:38:25;12.20;;;8.20;;
14272;SDS011;7220;49.450;11.052;2022-08-25T19:42:27;11.20;;;8.07;;
14272;SDS011;7220;49.450;11.052;2022-08-25T19:46:29;10.32;;;7.68;;
14272;SDS011;7220;49.450;11.052;2022-08-25T19:50:34;9.85;;;8.07;;
14272;SDS011;7220;49.450;11.052;2022-08-25T19:54:36;10.98;;;8.57;;
14272;SDS011;7220;49.450;11.052;2022-08-25T19:58:38;10.10;;;8.30;;
14272;SDS011;7220;49.450;11.052;2022-08-25T20:02:39;14.38;;;9.27;;
14272;SDS011;7220;49.450;11.052;2022-08-25T20:06:40;12.70;;;8.68;;
14272;SDS011;7220;49.450;11.052;2022-08-25T20:10:41;11.30;;;8.88;;
14272;SDS011;7220;49.450;11.052;2022-08-25T20:14:42;10.65;;;8.27;;
14272;SDS011;7220;49.450;11.052;2022-08-25T20:18:42;13.45;;;9.55;;
14272;SDS011;7220;49.450;11.052;2022-08-25T20:22:43;12.80;;;9.57;;
14272;SDS011;7220;49.450;11.052;2022-08-25T20:26:44;12.35;;;9.60;;
14272;SDS011;7220;49.450;11.052;2022-08-25T20:30:44;14.82;;;10.15;;
14272;SDS011;7220;49.450;11.052;2022-08-25T20:34:45;11.75;;;9.68;;
14272;SDS011;7220;49.450;11.052;2022-08-25T20:38:45;11.70;;;9.88;;
14272;SDS011;7220;49.450;11.052;2022-08-25T20:42:46;12.77;;;9.40;;
14272;SDS011;7220;49.450;11.052;2022-08-25T20:46:46;14.10;;;9.35;;
14272;SDS011;7220;49.450;11.052;2022-08-25T20:50:47;10.02;;;8.10;;
14272;SDS011;7220;49.450;11.052;2022-08-25T20:54:48;11.52;;;8.45;;
14272;SDS011;7220;49.450;11.052;2022-08-25T20:58:49;12.88;;;8.35;;
14272;SDS011;7220;49.450;11.052;2022-08-25T21:02:50;11.60;;;8.93;;
14272;SDS011;7220;49.450;11.052;2022-08-25T21:06:51;11.98;;;8.73;;
14272;SDS011;7220;49.450;11.052;2022-08-25T21:10:52;13.25;;;9.52;;
14272;SDS011;7220;49.450;11.052;2022-08-25T21:14:52;10.70;;;8.57;;
14272;SDS011;7220;49.450;11.052;2022-08-25T21:18:53;11.57;;;9.52;;
14272;SDS011;7220;49.450;11.052;2022-08-25T21:22:54;14.27;;;10.30;;
14272;SDS011;7220;49.450;11.052;2022-08-25T21:26:55;16.52;;;10.57;;
14272;SDS011;7220;49.450;11.052;2022-08-25T21:30:58;13.15;;;9.52;;
14272;SDS011;7220;49.450;11.052;2022-08-25T21:34:59;14.85;;;10.80;;
14272;SDS011;7220;49.450;11.052;2022-08-25T21:38:59;11.88;;;10.52;;
14272;SDS011;7220;49.450;11.052;2022-08-25T21:43:00;13.88;;;9.55;;
14272;SDS011;7220;49.450;11.052;2022-08-25T21:47:00;14.80;;;9.57;;
14272;SDS011;7220;49.450;11.052;2022-08-25T21:51:06;14.93;;;10.07;;
14272;SDS011;7220;49.450;11.052;2022-08-25T21:55:07;12.55;;;9.98;;
14272;SDS011;7220;49.450;11.052;2022-08-25T21:59:11;14.07;;;10.18;;
14272;SDS011;7220;49.450;11.052;2022-08-25T22:03:13;11.73;;;9.93;;
14272;SDS011;7220;49.450;11.052;2022-08-25T22:07:13;18.00;;;10.87;;
14272;SDS011;7220;49.450;11.052;2022-08-25T22:11:14;12.27;;;10.40;;
14272;SDS011;7220;49.450;11.052;2022-08-25T22:15:15;12.90;;;9.57;;
14272;SDS011;7220;49.450;11.052;2022-08-25T22:19:17;15.38;;;9.45;;
14272;SDS011;7220;49.450;11.052;2022-08-25T22:23:17;16.92;;;10.63;;
14272;SDS011;7220;49.450;11.052;2022-08-25T22:27:18;13.77;;;10.60;;
14272;SDS011;7220;49.450;11.052;2022-08-25T22:31:20;14.57;;;11.13;;
14272;SDS011;7220;49.450;11.052;2022-08-25T22:35:21;13.95;;;10.57;;
14272;SDS011;7220;49.450;11.052;2022-08-25T22:39:21;13.30;;;10.57;;
14272;SDS011;7220;49.450;11.052;2022-08-25T22:43:21;13.57;;;10.50;;
14272;SDS011;7220;49.450;11.052;2022-08-25T22:47:22;14.10;;;10.75;;
14272;SDS011;7220;49.450;11.052;2022-08-25T22:51:23;13.73;;;10.27;;
14272;SDS011;7220;49.450;11.052;2022-08-25T22:55:25;12.90;;;10.45;;
14272;SDS011;7220;49.450;11.052;2022-08-25T22:59:26;14.15;;;10.90;;
14272;SDS011;7220;49.450;11.052;2022-08-25T23:03:27;16.45;;;10.07;;
14272;SDS011;7220;49.450;11.052;2022-08-25T23:07:28;16.77;;;10.75;;
14272;SDS011;7220;49.450;11.052;2022-08-25T23:11:28;11.90;;;10.07;;
14272;SDS011;7220;49.450;11.052;2022-08-25T23:15:29;12.93;;;11.13;;
14272;SDS011;7220;49.450;11.052;2022-08-25T23:19:29;16.27;;;10.15;;
14272;SDS011;7220;49.450;11.052;2022-08-25T23:23:33;14.30;;;10.68;;
14272;SDS011;7220;49.450;11.052;2022-08-25T23:27:35;15.00;;;10.65;;
14272;SDS011;7220;49.450;11.052;2022-08-25T23:31:35;14.10;;;10.03;;
14272;SDS011;7220;49.450;11.052;2022-08-25T23:35:35;16.17;;;10.47;;
14272;SDS011;7220;49.450;11.052;2022-08-25T23:39:36;13.23;;;10.18;;
14272;SDS011;7220;49.450;11.052;2022-08-25T23:43:39;15.60;;;11.07;;
14272;SDS011;7220;49.450;11.052;2022-08-25T23:47:40;17.23;;;11.30;;
14272;SDS011;7220;49.450;11.052;2022-08-25T23:51:41;13.50;;;11.23;;
14272;SDS011;7220;49.450;11.052;2022-08-25T23:55:41;15.63;;;11.25;;
14272;SDS011;7220;49.450;11.052;2022-08-25T23:59:42;12.93;;;10.50;;
